Time;durP1;ratioP1;P1;durP2;ratioP2;P2;SDS_P1;SDS_P2;PMS_P1;PMS_P2;Temp;Humidity;BMP_temperature;BMP_pressure;BME280_temperature;BME280_humidity;BME280_pressure;Samples;Min_cycle;Max_cycle;Signal;HPM_P1;HPM_P2
2024/01/27 00:02:17;;;;;;;;;;;;;;;7.97;77.39;103046.31;7341820;19;19927;-67
2024/01/27 00:04:44;;;;;;;;;;;;;;;7.93;77.76;103038.66;7334544;19;19933;-67
2024/01/27 00:07:11;;;;;;;;;;;;;;;7.94;78.27;103041.22;7347970;19;19961;-66
2024/01/27 00:09:38;;;;;;;;;;;;;;;7.99;77.07;103040.97;7344061;19;19925;-67
2024/01/27 00:12:08;;;;;;;;;;;;;;;7.98;77.23;103044.50;7342720;19;20205;-68
2024/01/27 00:14:40;;;;;;;;;;;;;;;7.99;76.97;103036.56;7339485;19;19915;-68
2024/01/27 00:17:09;;;;;;;;;;;;;;;7.98;76.07;103031.41;7340158;19;20014;-68
2024/01/27 00:19:37;;;;;;;;;;;;;;;7.97;76.77;103032.34;7335353;19;19947;-67
2024/01/27 00:22:07;;;;;;;;;;;;;;;7.88;76.18;103031.06;7338124;19;19955;-67
2024/01/27 00:24:34;;;;;;;;;;;;;;;7.79;75.60;103034.16;7350893;19;19915;-69
2024/01/27 00:27:01;;;;;;;;;;;;;;;7.72;77.10;103025.75;7353450;19;19955;-67
2024/01/27 00:29:28;;;;;;;;;;;;;;;7.68;78.27;103032.09;7350493;19;19923;-67
2024/01/27 00:31:55;;;;;;;;;;;;;;;7.67;77.91;103037.41;7349601;19;19918;-68
2024/01/27 00:34:22;;;;;;;;;;;;;;;7.63;77.87;103043.72;7350172;19;19917;-66
2024/01/27 00:36:49;;;;;;;;;;;;;;;7.64;78.35;103041.03;7350498;19;19922;-67
2024/01/27 00:39:17;;;;;;;;;;;;;;;7.71;80.35;103038.97;7345448;19;20534;-67
2024/01/27 00:41:46;;;;;;;;;;;;;;;7.80;83.28;103035.00;7343433;19;19953;-66
2024/01/27 00:44:12;;;;;;;;;;;;;;;7.84;83.56;103031.28;7344926;19;21237;-70
2024/01/27 00:46:39;;;;;;;;;;;;;;;7.85;81.20;103038.22;7355863;19;19943;-68
2024/01/27 00:49:06;;;;;;;;;;;;;;;7.83;79.64;103033.06;7346158;19;19923;-66
2024/01/27 00:51:35;;;;;;;;;;;;;;;7.79;79.37;103031.53;7345704;19;19923;-68
2024/01/27 00:54:02;;;;;;;;;;;;;;;7.69;77.78;103025.94;7346513;19;19994;-68
2024/01/27 00:56:28;;;;;;;;;;;;;;;7.68;78.69;103024.22;7353870;19;19931;-66
2024/01/27 00:58:55;;;;;;;;;;;;;;;7.68;78.83;103024.22;7350142;19;19926;-68
2024/01/27 01:01:22;;;;;;;;;;;;;;;7.71;79.52;103024.09;7344868;19;20824;-68
2024/01/27 01:03:49;;;;;;;;;;;;;;;7.73;79.38;103016.97;7349471;19;20275;-70
2024/01/27 01:06:16;;;;;;;;;;;;;;;7.72;78.54;103024.91;7341335;19;19953;-67
2024/01/27 01:08:43;;;;;;;;;;;;;;;7.70;77.90;103019.78;7348258;19;19994;-67
2024/01/27 01:11:10;;;;;;;;;;;;;;;7.68;78.13;103019.00;7352189;19;19915;-67
2024/01/27 01:13:37;;;;;;;;;;;;;;;7.66;77.80;103027.88;7343488;19;21869;-69
2024/01/27 01:16:04;;;;;;;;;;;;;;;7.64;77.22;103014.84;7350697;19;19947;-68
2024/01/27 01:18:31;;;;;;;;;;;;;;;7.62;77.78;103024.53;7348134;19;19930;-66
2024/01/27 01:20:58;;;;;;;;;;;;;;;7.60;78.09;103017.72;7346959;19;20553;-67
2024/01/27 01:23:25;;;;;;;;;;;;;;;7.59;78.74;103009.00;7347379;19;21671;-67
2024/01/27 01:25:51;;;;;;;;;;;;;;;7.56;79.02;102998.69;7342733;19;19919;-67
2024/01/27 01:28:18;;;;;;;;;;;;;;;7.54;78.59;102991.81;7347335;19;21677;-66
2024/01/27 01:30:45;;;;;;;;;;;;;;;7.52;78.23;102991.88;7341290;19;20418;-67
2024/01/27 01:33:12;;;;;;;;;;;;;;;7.54;78.61;102994.44;7351141;19;19936;-68
2024/01/27 01:35:39;;;;;;;;;;;;;;;7.51;78.55;102999.84;7345307;19;19925;-67
2024/01/27 01:38:06;;;;;;;;;;;;;;;7.51;78.56;102999.84;7348965;19;20009;-67
2024/01/27 01:40:33;;;;;;;;;;;;;;;7.52;78.77;102998.91;7343323;19;22903;-67
2024/01/27 01:43:00;;;;;;;;;;;;;;;7.53;79.05;102998.84;7349761;19;19919;-67
2024/01/27 01:45:27;;;;;;;;;;;;;;;7.55;80.14;102991.75;7344915;19;21827;-69
2024/01/27 01:47:54;;;;;;;;;;;;;;;7.54;80.14;102987.44;7346086;19;20312;-67
2024/01/27 01:50:21;;;;;;;;;;;;;;;7.54;79.53;102990.06;7346310;19;20283;-67
2024/01/27 01:52:49;;;;;;;;;;;;;;;7.54;78.94;102992.69;7339041;19;21263;-67
2024/01/27 01:55:16;;;;;;;;;;;;;;;7.54;78.62;102997.91;7342052;19;20659;-67
2024/01/27 01:57:43;;;;;;;;;;;;;;;7.56;78.86;103000.47;7342077;19;19963;-68
2024/01/27 02:00:11;;;;;;;;;;;;;;;7.52;78.58;103006.75;7345269;19;21459;-68
2024/01/27 02:02:38;;;;;;;;;;;;;;;7.53;78.74;102996.22;7343748;19;20114;-67
2024/01/27 02:05:05;;;;;;;;;;;;;;;7.56;78.87;103003.94;7340751;19;19958;-67
2024/01/27 02:07:32;;;;;;;;;;;;;;;7.55;79.23;103012.72;7344922;19;19910;-69
2024/01/27 02:09:59;;;;;;;;;;;;;;;7.54;79.93;102997.91;7346266;19;20245;-66
2024/01/27 02:12:26;;;;;;;;;;;;;;;7.47;78.09;102993.91;7340820;19;19918;-67
2024/01/27 02:14:53;;;;;;;;;;;;;;;7.48;78.68;102995.59;7347959;19;20878;-67
2024/01/27 02:17:21;;;;;;;;;;;;;;;7.49;78.85;102999.91;7340445;19;19915;-67
2024/01/27 02:19:50;;;;;;;;;;;;;;;7.52;79.55;103002.38;7343461;19;19926;-69
2024/01/27 02:22:17;;;;;;;;;;;;;;;7.52;79.69;103006.75;7345086;19;20526;-67
2024/01/27 02:24:43;;;;;;;;;;;;;;;7.52;79.97;103004.13;7344403;19;19918;-67
2024/01/27 02:27:10;;;;;;;;;;;;;;;7.52;81.82;103005.00;7343689;19;19922;-68
2024/01/27 02:29:37;;;;;;;;;;;;;;;7.47;80.82;103000.91;7342217;19;20629;-67
2024/01/27 02:32:04;;;;;;;;;;;;;;;7.44;79.87;102996.69;7354753;19;20697;-67
2024/01/27 02:34:31;;;;;;;;;;;;;;;7.43;79.29;102997.63;7360098;19;19983;-68
2024/01/27 02:36:58;;;;;;;;;;;;;;;7.43;79.50;102996.75;7349445;19;20463;-67
2024/01/27 02:39:25;;;;;;;;;;;;;;;7.44;79.38;103006.31;7336128;19;20500;-68
2024/01/27 02:41:52;;;;;;;;;;;;;;;7.42;79.18;102997.69;7341337;19;19922;-67
2024/01/27 02:44:19;;;;;;;;;;;;;;;7.37;78.58;103004.94;7340074;19;20006;-67
2024/01/27 02:46:46;;;;;;;;;;;;;;;7.37;78.83;103007.53;7342913;19;19918;-66
2024/01/27 02:49:12;;;;;;;;;;;;;;;7.37;79.24;103007.53;7343325;19;20721;-67
2024/01/27 02:51:40;;;;;;;;;;;;;;;7.35;78.75;103007.66;7349710;19;19993;-68
2024/01/27 02:54:06;;;;;;;;;;;;;;;7.33;78.42;103006.84;7338244;19;19937;-66
2024/01/27 02:56:33;;;;;;;;;;;;;;;7.34;78.69;103010.31;7347097;19;21519;-68
2024/01/27 02:59:05;;;;;;;;;;;;;;;7.34;78.52;103007.72;7347441;19;19931;-68
2024/01/27 03:01:39;;;;;;;;;;;;;;;7.26;78.13;102992.41;7342989;19;19946;-69
2024/01/27 03:04:06;;;;;;;;;;;;;;;7.20;78.26;102983.09;7340845;19;19986;-66
2024/01/27 03:06:33;;;;;;;;;;;;;;;7.21;78.82;102983.94;7347285;19;20034;-68
2024/01/27 03:09:00;;;;;;;;;;;;;;;7.22;78.79;102980.38;7342919;19;19919;-68
2024/01/27 03:11:27;;;;;;;;;;;;;;;7.24;78.56;102999.47;7348899;19;19922;-68
2024/01/27 03:13:54;;;;;;;;;;;;;;;7.25;79.28;103002.03;7350821;19;19986;-67
2024/01/27 03:16:21;;;;;;;;;;;;;;;7.18;79.01;102995.41;7341821;19;19950;-67
2024/01/27 03:18:47;;;;;;;;;;;;;;;7.21;79.12;102991.78;7336588;19;20018;-66
2024/01/27 03:21:15;;;;;;;;;;;;;;;7.23;79.03;102982.06;7347529;19;19922;-67
2024/01/27 03:23:42;;;;;;;;;;;;;;;7.24;79.21;102995.09;7344501;19;19918;-67
2024/01/27 03:26:08;;;;;;;;;;;;;;;7.24;79.56;102989.84;7344649;19;19923;-68
2024/01/27 03:28:36;;;;;;;;;;;;;;;7.31;79.55;103001.69;7341617;19;19926;-66
2024/01/27 03:31:02;;;;;;;;;;;;;;;7.28;78.78;102998.38;7344411;19;20287;-68
2024/01/27 03:33:30;;;;;;;;;;;;;;;7.26;78.52;102995.84;7344309;19;19923;-67
2024/01/27 03:35:57;;;;;;;;;;;;;;;7.28;78.86;103004.47;7336292;19;19922;-68
2024/01/27 03:38:24;;;;;;;;;;;;;;;7.27;78.58;103001.94;7344466;19;19926;-66
2024/01/27 03:40:51;;;;;;;;;;;;;;;7.26;78.28;103002.88;7342361;19;19945;-68
2024/01/27 03:43:18;;;;;;;;;;;;;;;7.25;78.85;103004.66;7344663;19;20236;-67
2024/01/27 03:45:45;;;;;;;;;;;;;;;7.24;78.97;103009.94;7344724;19;19915;-66
2024/01/27 03:48:12;;;;;;;;;;;;;;;7.24;79.36;103013.41;7339760;19;20580;-67
2024/01/27 03:50:39;;;;;;;;;;;;;;;7.23;79.51;103011.72;7340734;19;20086;-67
2024/01/27 03:53:05;;;;;;;;;;;;;;;7.23;79.75;103005.63;7343340;19;19922;-67
2024/01/27 03:55:34;;;;;;;;;;;;;;;7.22;79.84;103009.16;7338582;19;19947;-67
2024/01/27 03:58:01;;;;;;;;;;;;;;;7.23;79.90;103023.97;7347801;19;19922;-67
2024/01/27 04:00:32;;;;;;;;;;;;;;;7.21;79.57;103010.94;7343904;19;19929;-68
2024/01/27 04:03:00;;;;;;;;;;;;;;;7.17;79.21;103006.78;7346025;19;20010;-67
2024/01/27 04:05:30;;;;;;;;;;;;;;;7.20;79.35;103000.56;7352541;19;20259;-67
2024/01/27 04:07:57;;;;;;;;;;;;;;;7.21;79.43;103003.06;7353832;19;19958;-66
2024/01/27 04:10:24;;;;;;;;;;;;;;;7.20;78.60;102993.56;7337641;19;19914;-68
2024/01/27 04:12:58;;;;;;;;;;;;;;;7.20;78.70;102980.47;7341623;19;19934;-67
2024/01/27 04:15:26;;;;;;;;;;;;;;;7.20;78.37;102979.63;7345014;19;19929;-67
2024/01/27 04:17:57;;;;;;;;;;;;;;;7.21;78.54;102990.00;7346114;19;20553;-68
2024/01/27 04:20:29;;;;;;;;;;;;;;;7.21;78.40;102995.22;7338860;19;20531;-69
2024/01/27 04:23:01;;;;;;;;;;;;;;;7.22;78.05;102996.06;7345636;19;20207;-68
2024/01/27 04:25:28;;;;;;;;;;;;;;;7.22;78.23;103002.16;7341451;19;20007;-68
2024/01/27 04:27:55;;;;;;;;;;;;;;;7.24;78.88;103002.94;7334477;19;20800;-66
2024/01/27 04:30:23;;;;;;;;;;;;;;;7.24;78.57;102999.47;7331151;19;19918;-67
2024/01/27 04:32:54;;;;;;;;;;;;;;;7.19;78.51;102989.25;7333903;19;20692;-67
2024/01/27 04:35:22;;;;;;;;;;;;;;;7.20;79.06;102993.56;7341438;19;19922;-66
2024/01/27 04:37:51;;;;;;;;;;;;;;;7.21;79.48;102990.00;7339742;19;19929;-66
2024/01/27 04:40:19;;;;;;;;;;;;;;;7.14;79.00;102980.78;7339022;19;19929;-68
2024/01/27 04:42:45;;;;;;;;;;;;;;;7.11;79.29;102990.56;7348193;19;20002;-67
2024/01/27 04:45:14;;;;;;;;;;;;;;;7.10;79.62;102984.47;7344544;19;21559;-67
2024/01/27 04:47:41;;;;;;;;;;;;;;;7.09;79.45;102976.69;7338978;19;19921;-67
2024/01/27 04:50:09;;;;;;;;;;;;;;;7.09;78.82;102976.69;7345453;19;19911;-66
2024/01/27 04:52:36;;;;;;;;;;;;;;;7.08;78.77;102968.00;7342994;19;19922;-67
2024/01/27 04:55:03;;;;;;;;;;;;;;;7.09;79.48;102974.94;7341405;19;19918;-67
2024/01/27 04:57:31;;;;;;;;;;;;;;;7.04;79.05;102968.22;7339475;19;19923;-67
2024/01/27 04:59:58;;;;;;;;;;;;;;;7.02;79.39;102976.13;7341336;19;20283;-68
2024/01/27 05:02:25;;;;;;;;;;;;;;;6.94;79.07;102972.22;7345162;19;19926;-67
2024/01/27 05:04:52;;;;;;;;;;;;;;;6.91;79.32;102975.00;7342143;19;20224;-68
2024/01/27 05:07:19;;;;;;;;;;;;;;;6.88;79.62;102973.38;7340199;19;20009;-67
2024/01/27 05:09:45;;;;;;;;;;;;;;;6.92;80.29;102979.28;7345945;19;21628;-67
2024/01/27 05:12:12;;;;;;;;;;;;;;;6.94;80.52;102972.22;7352499;19;19918;-66
2024/01/27 05:14:43;;;;;;;;;;;;;;;6.93;80.21;102960.91;7347230;19;20212;-66
2024/01/27 05:17:10;;;;;;;;;;;;;;;6.91;79.77;102960.13;7347678;19;19927;-68
2024/01/27 05:19:37;;;;;;;;;;;;;;;6.91;80.07;102946.22;7347589;19;19930;-67
2024/01/27 05:22:03;;;;;;;;;;;;;;;6.93;80.13;102955.66;7353174;19;19929;-67
2024/01/27 05:24:30;;;;;;;;;;;;;;;6.93;80.22;102960.91;7356433;19;19929;-67
2024/01/27 05:26:57;;;;;;;;;;;;;;;6.89;80.03;102954.13;7355132;19;19919;-67
2024/01/27 05:29:24;;;;;;;;;;;;;;;6.79;79.96;102942.44;7348868;19;19942;-67
2024/01/27 05:31:51;;;;;;;;;;;;;;;6.81;80.21;102938.81;7350937;19;19914;-68
2024/01/27 05:34:18;;;;;;;;;;;;;;;6.85;80.81;102932.53;7341486;19;19923;-67
2024/01/27 05:36:45;;;;;;;;;;;;;;;6.86;80.10;102935.97;7352678;19;20283;-67
2024/01/27 05:39:12;;;;;;;;;;;;;;;6.86;80.33;102930.72;7339653;19;19925;-67
2024/01/27 05:41:40;;;;;;;;;;;;;;;6.88;80.52;102934.13;7348644;19;20474;-67
2024/01/27 05:44:07;;;;;;;;;;;;;;;6.91;80.38;102933.13;7346839;19;19926;-67
2024/01/27 05:46:34;;;;;;;;;;;;;;;6.91;80.84;102930.53;7348500;19;19974;-66
2024/01/27 05:49:03;;;;;;;;;;;;;;;6.93;79.75;102932.13;7341734;19;19982;-66
2024/01/27 05:51:34;;;;;;;;;;;;;;;6.94;80.26;102925.97;7352934;19;19923;-68
2024/01/27 05:54:02;;;;;;;;;;;;;;;6.94;79.87;102914.66;7341652;19;20845;-68
2024/01/27 05:56:29;;;;;;;;;;;;;;;6.89;79.45;102912.28;7341149;19;19915;-68
2024/01/27 05:58:56;;;;;;;;;;;;;;;6.89;79.86;102922.75;7348666;19;19922;-67
2024/01/27 06:01:23;;;;;;;;;;;;;;;6.90;80.08;102926.22;7350493;19;20009;-67
2024/01/27 06:03:50;;;;;;;;;;;;;;;6.93;80.67;102932.13;7342647;19;19938;-68
2024/01/27 06:06:17;;;;;;;;;;;;;;;6.92;80.10;102927.81;7344215;19;19919;-67
2024/01/27 06:08:44;;;;;;;;;;;;;;;6.90;79.20;102927.06;7347856;19;19919;-67
2024/01/27 06:11:11;;;;;;;;;;;;;;;6.83;79.01;102923.03;7343843;19;19918;-67
2024/01/27 06:13:38;;;;;;;;;;;;;;;6.82;79.94;102919.56;7343662;19;19922;-67
2024/01/27 06:16:09;;;;;;;;;;;;;;;6.84;80.87;102914.28;7338416;19;19922;-66
2024/01/27 06:18:36;;;;;;;;;;;;;;;6.85;80.86;102932.53;7342514;19;19986;-66
2024/01/27 06:21:05;;;;;;;;;;;;;;;6.85;81.09;102931.66;7345822;19;19941;-67
2024/01/27 06:23:32;;;;;;;;;;;;;;;6.82;80.50;102942.28;7346906;19;19923;-67
2024/01/27 06:25:59;;;;;;;;;;;;;;;6.78;80.55;102938.97;7348128;19;20002;-67
2024/01/27 06:28:27;;;;;;;;;;;;;;;6.72;79.99;102947.09;7347013;19;19919;-67
2024/01/27 06:30:54;;;;;;;;;;;;;;;6.72;80.61;102946.25;7337692;19;21130;-67
2024/01/27 06:33:21;;;;;;;;;;;;;;;6.76;80.87;102968.72;7346554;19;19986;-68
2024/01/27 06:35:48;;;;;;;;;;;;;;;6.75;82.09;102962.69;7340434;19;19923;-68
2024/01/27 06:38:15;;;;;;;;;;;;;;;6.74;82.34;102963.59;7349529;19;19919;-68
2024/01/27 06:40:42;;;;;;;;;;;;;;;6.72;82.22;102972.41;7345561;19;21602;-66
2024/01/27 06:43:10;;;;;;;;;;;;;;;6.72;82.19;102973.28;7348043;19;19926;-68
2024/01/27 06:45:37;;;;;;;;;;;;;;;6.73;82.21;102981.97;7346148;19;19926;-68
2024/01/27 06:48:05;;;;;;;;;;;;;;;6.71;82.68;102975.94;7339009;19;19914;-67
2024/01/27 06:50:32;;;;;;;;;;;;;;;6.69;82.34;102983.03;7347976;19;19923;-69
2024/01/27 06:52:59;;;;;;;;;;;;;;;6.65;82.05;102973.66;7345571;19;20013;-68
2024/01/27 06:55:27;;;;;;;;;;;;;;;6.69;82.96;102972.59;7345373;19;20028;-68
2024/01/27 06:57:53;;;;;;;;;;;;;;;6.65;82.90;102965.81;7344711;19;19925;-68
2024/01/27 07:00:20;;;;;;;;;;;;;;;6.67;82.47;102964.78;7340793;19;20324;-68
2024/01/27 07:02:47;;;;;;;;;;;;;;;6.64;83.02;102967.56;7344277;19;19921;-69
2024/01/27 07:05:14;;;;;;;;;;;;;;;6.60;82.90;102959.97;7339412;19;19927;-68
2024/01/27 07:07:41;;;;;;;;;;;;;;;6.63;83.36;102954.56;7345621;19;19950;-68
2024/01/27 07:10:08;;;;;;;;;;;;;;;6.64;83.17;102951.88;7342418;19;19919;-67
2024/01/27 07:12:36;;;;;;;;;;;;;;;6.67;82.41;102948.25;7350682;19;19923;-68
2024/01/27 07:15:03;;;;;;;;;;;;;;;6.69;82.61;102938.56;7337750;19;19953;-69
2024/01/27 07:17:30;;;;;;;;;;;;;;;6.69;82.50;102934.19;7343980;19;21590;-67
2024/01/27 07:19:57;;;;;;;;;;;;;;;6.70;81.77;102935.91;7339456;19;19934;-67
2024/01/27 07:22:24;;;;;;;;;;;;;;;6.69;82.12;102946.44;7347322;19;20780;-69
2024/01/27 07:24:51;;;;;;;;;;;;;;;6.69;82.25;102942.03;7347598;19;19941;-68
2024/01/27 07:27:18;;;;;;;;;;;;;;;6.70;82.80;102938.50;7339164;19;20798;-67
2024/01/27 07:29:45;;;;;;;;;;;;;;;6.68;82.60;102947.34;7344939;19;19923;-67
2024/01/27 07:32:15;;;;;;;;;;;;;;;6.70;83.15;102963.81;7340514;19;19942;-68
2024/01/27 07:34:42;;;;;;;;;;;;;;;6.69;82.08;102957.75;7347195;19;19923;-67
2024/01/27 07:37:09;;;;;;;;;;;;;;;6.65;83.00;102965.81;7343831;19;19918;-68
2024/01/27 07:39:37;;;;;;;;;;;;;;;6.67;83.15;102967.41;7339499;19;19918;-67
2024/01/27 07:42:05;;;;;;;;;;;;;;;6.63;83.34;102954.56;7348037;19;19922;-69
2024/01/27 07:44:32;;;;;;;;;;;;;;;6.68;82.97;102968.25;7340478;19;19919;-67
2024/01/27 07:46:59;;;;;;;;;;;;;;;6.66;81.93;102970.09;7340327;19;19919;-66
2024/01/27 07:49:26;;;;;;;;;;;;;;;6.64;82.62;102975.41;7332276;19;19963;-68
2024/01/27 07:51:53;;;;;;;;;;;;;;;6.67;83.75;102980.50;7342869;19;19915;-68
2024/01/27 07:54:20;;;;;;;;;;;;;;;6.67;82.59;102983.09;7345590;19;19926;-67
2024/01/27 07:56:47;;;;;;;;;;;;;;;6.69;82.99;102959.50;7346516;19;19951;-68
2024/01/27 07:59:14;;;;;;;;;;;;;;;6.71;83.46;102949.78;7343806;19;20013;-68
2024/01/27 08:01:41;;;;;;;;;;;;;;;6.70;82.34;102954.22;7346271;19;19923;-68
2024/01/27 08:04:08;;;;;;;;;;;;;;;6.68;83.46;102955.19;7339348;19;19930;-68
2024/01/27 08:06:45;;;;;;;;;;;;;;;6.65;83.85;102945.75;7341313;19;19930;-67
2024/01/27 08:09:12;;;;;;;;;;;;;;;6.69;83.18;102954.28;7345382;19;20296;-68
2024/01/27 08:11:39;;;;;;;;;;;;;;;6.72;83.67;102967.19;7347950;19;19930;-67
2024/01/27 08:14:06;;;;;;;;;;;;;;;6.75;84.00;102965.28;7341278;19;19998;-67
2024/01/27 08:16:33;;;;;;;;;;;;;;;6.74;83.36;102960.13;7348371;19;19925;-68
2024/01/27 08:18:59;;;;;;;;;;;;;;;6.75;84.09;102964.44;7345601;19;21498;-68
2024/01/27 08:21:27;;;;;;;;;;;;;;;6.78;84.35;102961.66;7344637;19;19915;-68
2024/01/27 08:23:54;;;;;;;;;;;;;;;6.79;84.06;102972.06;7338562;19;19927;-66
2024/01/27 08:26:22;;;;;;;;;;;;;;;6.78;84.33;102979.97;7339061;19;21425;-67
2024/01/27 08:28:49;;;;;;;;;;;;;;;6.74;85.46;102968.81;7341318;19;19968;-67
2024/01/27 08:31:16;;;;;;;;;;;;;;;6.72;85.56;102977.66;7339187;19;20699;-68
2024/01/27 08:33:42;;;;;;;;;;;;;;;6.80;86.23;102980.75;7341286;19;21623;-68
2024/01/27 08:36:13;;;;;;;;;;;;;;;6.85;86.14;102984.00;7340969;19;19923;-67
2024/01/27 08:38:40;;;;;;;;;;;;;;;6.92;86.49;102977.53;7347493;19;19915;-67
2024/01/27 08:41:07;;;;;;;;;;;;;;;6.99;86.82;102976.31;7339740;19;20406;-67
2024/01/27 08:43:34;;;;;;;;;;;;;;;7.03;87.34;102974.38;7345870;19;19990;-67
2024/01/27 08:46:01;;;;;;;;;;;;;;;7.07;87.02;102975.91;7353678;19;19926;-67
2024/01/27 08:48:27;;;;;;;;;;;;;;;7.09;86.87;102972.31;7344896;19;19972;-68
2024/01/27 08:50:55;;;;;;;;;;;;;;;7.17;87.97;102969.28;7351356;19;20311;-67
2024/01/27 08:53:22;;;;;;;;;;;;;;;7.26;87.29;102977.50;7352110;19;19934;-68
2024/01/27 08:55:48;;;;;;;;;;;;;;;7.37;86.62;102976.13;7348226;19;19939;-66
2024/01/27 08:58:15;;;;;;;;;;;;;;;7.43;86.32;102971.44;7353175;19;20387;-68
2024/01/27 09:00:42;;;;;;;;;;;;;;;7.48;86.86;102973.81;7344931;19;19994;-68
2024/01/27 09:03:09;;;;;;;;;;;;;;;7.50;87.32;102972.81;7351602;19;19927;-68
2024/01/27 09:05:36;;;;;;;;;;;;;;;7.57;86.75;102971.53;7347126;19;19919;-69
2024/01/27 09:08:03;;;;;;;;;;;;;;;7.65;86.09;102955.44;7352156;19;19938;-67
2024/01/27 09:10:33;;;;;;;;;;;;;;;7.72;86.43;102957.63;7342884;19;20723;-66
2024/01/27 09:13:01;;;;;;;;;;;;;;;7.78;86.47;102956.47;7349840;19;19926;-67
2024/01/27 09:15:27;;;;;;;;;;;;;;;7.77;86.21;102973.16;7345299;19;20287;-67
2024/01/27 09:17:54;;;;;;;;;;;;;;;7.78;86.42;102966.94;7351435;19;19918;-67
2024/01/27 09:20:22;;;;;;;;;;;;;;;7.77;86.47;102959.19;7348004;19;19994;-67
2024/01/27 09:22:50;;;;;;;;;;;;;;;7.77;86.48;102960.03;7348760;19;19917;-67
2024/01/27 09:25:17;;;;;;;;;;;;;;;7.87;87.19;102963.88;7340733;19;19921;-67
2024/01/27 09:27:44;;;;;;;;;;;;;;;7.89;86.74;102971.63;7350080;19;19946;-68
2024/01/27 09:30:11;;;;;;;;;;;;;;;7.93;86.22;102970.53;7344748;19;19947;-67
2024/01/27 09:32:39;;;;;;;;;;;;;;;7.94;86.13;102965.22;7348122;19;19929;-68
2024/01/27 09:35:06;;;;;;;;;;;;;;;7.97;86.45;102961.59;7352469;19;19919;-68
2024/01/27 09:37:33;;;;;;;;;;;;;;;8.00;86.61;102964.03;7345973;19;19915;-67
2024/01/27 09:40:02;;;;;;;;;;;;;;;8.04;86.73;102976.88;7347089;19;19922;-67
2024/01/27 09:42:31;;;;;;;;;;;;;;;8.08;87.35;102960.06;7344884;19;19929;-67
2024/01/27 09:44:58;;;;;;;;;;;;;;;8.16;87.11;102971.00;7345121;19;21228;-68
2024/01/27 09:47:25;;;;;;;;;;;;;;;8.16;86.62;102971.00;7350989;19;19986;-67
2024/01/27 09:49:52;;;;;;;;;;;;;;;8.22;86.41;102976.81;7342918;19;19926;-67
2024/01/27 09:52:19;;;;;;;;;;;;;;;8.26;86.31;102981.81;7336288;19;20706;-66
2024/01/27 09:54:46;;;;;;;;;;;;;;;8.32;86.59;102984.13;7345442;19;19951;-68
2024/01/27 09:57:13;;;;;;;;;;;;;;;8.39;86.53;102976.75;7356097;19;19919;-66
2024/01/27 09:59:44;;;;;;;;;;;;;;;8.44;86.24;102977.34;7346084;19;20251;-67
2024/01/27 10:02:11;;;;;;;;;;;;;;;8.50;86.06;102985.72;7340429;19;20290;-68
2024/01/27 10:04:41;;;;;;;;;;;;;;;8.59;85.37;102986.97;7336646;19;21161;-66
2024/01/27 10:07:08;;;;;;;;;;;;;;;8.65;85.19;102988.41;7346837;19;19915;-67
2024/01/27 10:09:35;;;;;;;;;;;;;;;8.75;85.34;102995.69;7341827;19;19922;-67
2024/01/27 10:12:02;;;;;;;;;;;;;;;8.84;85.02;102992.53;7346711;19;19914;-69
2024/01/27 10:14:40;;;;;;;;;;;;;;;8.96;83.84;102996.25;7345627;19;19961;-66
2024/01/27 10:17:19;;;;;;;;;;;;;;;9.01;83.51;103002.06;7349524;19;21602;-67
2024/01/27 10:19:46;;;;;;;;;;;;;;;9.11;83.53;102994.50;7342834;19;19926;-67
2024/01/27 10:22:14;;;;;;;;;;;;;;;9.15;83.20;102996.00;7347637;19;19922;-67
2024/01/27 10:24:41;;;;;;;;;;;;;;;9.21;83.08;103006.16;7341905;19;19923;-69
2024/01/27 10:27:09;;;;;;;;;;;;;;;9.22;82.44;103002.59;7351674;19;19998;-67
2024/01/27 10:29:36;;;;;;;;;;;;;;;9.29;81.82;102996.91;7349392;19;20216;-66
2024/01/27 10:32:10;;;;;;;;;;;;;;;9.34;82.11;103005.38;7356655;19;19919;-66
2024/01/27 10:34:37;;;;;;;;;;;;;;;9.48;84.32;103003.69;7342415;19;19914;-67
2024/01/27 10:37:04;;;;;;;;;;;;;;;9.53;86.44;103002.47;7348401;19;19998;-67
2024/01/27 10:39:31;;;;;;;;;;;;;;;9.53;83.61;102994.59;7343540;19;20640;-67
2024/01/27 10:42:02;;;;;;;;;;;;;;;9.48;81.94;102991.41;7344115;19;20455;-68
2024/01/27 10:44:29;;;;;;;;;;;;;;;9.53;81.53;102999.84;7351304;19;19922;-67
2024/01/27 10:46:56;;;;;;;;;;;;;;;9.51;80.82;102992.97;7346347;19;20466;-67
2024/01/27 10:49:23;;;;;;;;;;;;;;;9.58;81.22;102997.78;7341591;19;19918;-66
2024/01/27 10:51:54;;;;;;;;;;;;;;;9.60;81.19;102995.91;7345694;19;21074;-67
2024/01/27 10:54:30;;;;;;;;;;;;;;;9.66;80.81;103002.56;7348882;19;19918;-67
2024/01/27 10:57:02;;;;;;;;;;;;;;;9.72;80.80;103004.81;7349994;19;20446;-66
2024/01/27 10:59:30;;;;;;;;;;;;;;;9.69;80.81;103005.88;7350498;19;19923;-68
2024/01/27 11:02:00;;;;;;;;;;;;;;;9.73;80.97;102999.50;7351569;19;19939;-66
2024/01/27 11:04:41;;;;;;;;;;;;;;;9.74;80.99;103006.44;7342669;19;19955;-67
2024/01/27 11:07:14;;;;;;;;;;;;;;;9.80;80.39;103010.47;7345834;19;19944;-67
2024/01/27 11:10:01;;;;;;;;;;;;;;;9.84;80.25;103007.56;7349312;19;20038;-70
2024/01/27 11:12:29;;;;;;;;;;;;;;;9.92;80.64;103006.25;7355293;19;20655;-69
2024/01/27 11:15:06;;;;;;;;;;;;;;;9.99;81.32;103011.03;7353740;19;19915;-70
2024/01/27 11:17:41;;;;;;;;;;;;;;;10.06;81.33;102993.06;7351701;19;19919;-68
2024/01/27 11:20:08;;;;;;;;;;;;;;;10.12;81.04;102977.75;7353165;19;20014;-69
2024/01/27 11:22:39;;;;;;;;;;;;;;;10.12;79.45;102961.97;7353408;19;19939;-69
2024/01/27 11:25:12;;;;;;;;;;;;;;;10.15;79.65;102964.44;7348392;19;19990;-69
2024/01/27 11:27:39;;;;;;;;;;;;;;;10.23;79.62;102961.34;7351228;19;19925;-70
2024/01/27 11:30:24;;;;;;;;;;;;;;;10.32;79.65;102967.78;7352443;19;20216;-69
2024/01/27 11:32:55;;;;;;;;;;;;;;;10.43;79.92;102950.38;7350322;19;19911;-70
2024/01/27 11:35:22;;;;;;;;;;;;;;;10.50;78.98;102943.78;7352649;19;19930;-70
2024/01/27 11:37:49;;;;;;;;;;;;;;;10.58;78.99;102948.53;7352353;19;19918;-69
2024/01/27 11:40:16;;;;;;;;;;;;;;;10.63;78.26;102947.28;7350791;19;19927;-71
2024/01/27 11:42:43;;;;;;;;;;;;;;;10.68;78.35;102932.03;7347388;19;19918;-70
2024/01/27 11:45:10;;;;;;;;;;;;;;;10.72;77.07;102927.41;7349450;19;20083;-70
2024/01/27 11:47:37;;;;;;;;;;;;;;;10.81;77.58;102928.59;7346981;19;19959;-69
2024/01/27 11:50:04;;;;;;;;;;;;;;;10.89;77.84;102940.31;7349698;19;20310;-70
2024/01/27 11:52:32;;;;;;;;;;;;;;;10.89;77.04;102935.03;7345274;19;20410;-69
2024/01/27 11:55:01;;;;;;;;;;;;;;;10.93;77.51;102933.88;7344921;19;19926;-69
2024/01/27 11:57:28;;;;;;;;;;;;;;;10.97;77.33;102930.09;7347458;19;19919;-68
2024/01/27 11:59:56;;;;;;;;;;;;;;;11.04;76.38;102922.63;7347900;19;20398;-69
2024/01/27 12:02:23;;;;;;;;;;;;;;;11.02;76.38;102924.53;7347371;19;19933;-69
2024/01/27 12:04:49;;;;;;;;;;;;;;;11.05;76.36;102921.69;7344793;19;19933;-69
2024/01/27 12:07:20;;;;;;;;;;;;;;;11.15;77.89;102914.84;7352390;19;19922;-68
2024/01/27 12:09:50;;;;;;;;;;;;;;;11.19;76.97;102910.19;7347239;19;19925;-68
2024/01/27 12:12:18;;;;;;;;;;;;;;;11.14;76.19;102908.72;7352720;19;20497;-69
2024/01/27 12:14:47;;;;;;;;;;;;;;;11.12;76.02;102902.69;7350006;19;19922;-68
2024/01/27 12:17:14;;;;;;;;;;;;;;;11.15;75.97;102904.28;7357874;19;20355;-69
2024/01/27 12:19:54;;;;;;;;;;;;;;;11.16;75.39;102900.72;7357191;19;19927;-69
2024/01/27 12:22:27;;;;;;;;;;;;;;;11.25;76.97;102893.97;7358657;19;19915;-68
2024/01/27 12:24:54;;;;;;;;;;;;;;;11.26;75.68;102901.78;7359697;19;19922;-69
2024/01/27 12:27:25;;;;;;;;;;;;;;;11.26;75.18;102895.66;7359876;19;21622;-68
2024/01/27 12:29:52;;;;;;;;;;;;;;;11.28;74.70;102899.84;7360687;19;19926;-70
2024/01/27 12:32:19;;;;;;;;;;;;;;;11.28;75.15;102905.13;7343375;19;19942;-68
2024/01/27 12:34:47;;;;;;;;;;;;;;;11.35;76.40;102900.28;7357436;19;21677;-69
2024/01/27 12:37:22;;;;;;;;;;;;;;;11.30;74.77;102903.25;7363756;19;19934;-69
2024/01/27 12:39:52;;;;;;;;;;;;;;;11.28;74.41;102889.31;7352806;19;20898;-69
2024/01/27 12:42:19;;;;;;;;;;;;;;;11.29;75.68;102879.63;7362073;19;19994;-68
2024/01/27 12:44:46;;;;;;;;;;;;;;;11.21;73.91;102880.16;7358660;19;19938;-68
2024/01/27 12:47:13;;;;;;;;;;;;;;;11.16;73.51;102877.00;7360382;19;20554;-69
2024/01/27 12:49:40;;;;;;;;;;;;;;;11.17;74.29;102881.34;7344926;19;19923;-68